Terminal Aerodrome Forecast
Issued by NWS Wilmington, OH

Current Version | Previous Version | Text Only | Print | Product List | Glossary Off
Versions: 1 2 3 4 5 6 7 8 9 10 11 12 13 14 15 16 17

000
FTUS41 KILN 141600 AAA
TAFILN
TAF AMD
KILN 141635Z 1417/1512 22020G30KT 3SM -SHRA BR OVC015
      TEMPO 1417/1418 OVC025
     FM141800 22018G26KT P6SM -SHRA OVC025
     FM142300 30014G22KT P6SM -RA OVC015
     FM150400 33016G28KT 5SM -RA BR OVC008
     FM150900 34018G25KT 4SM -SN OVC006=

USA.gov is the U.S. government's official web portal to all federal, state and local government web resources and services.